createdAt,value
2019-02-11T00:03:25.380Z,3.89
2019-02-11T00:08:28.876Z,3.85
2019-02-11T00:13:33.485Z,3.76
2019-02-11T00:18:36.836Z,3.70
2019-02-11T00:23:40.299Z,3.63
2019-02-11T00:28:43.653Z,3.67
2019-02-11T00:33:47.060Z,3.70
2019-02-11T00:38:50.572Z,3.78
2019-02-11T00:43:53.987Z,3.74
2019-02-11T00:48:57.325Z,3.74
2019-02-11T00:54:00.822Z,3.87
2019-02-11T00:59:04.332Z,3.86
2019-02-11T01:04:07.684Z,3.85
2019-02-11T01:09:11.221Z,3.88
2019-02-11T01:14:14.577Z,3.89
2019-02-11T01:19:18.011Z,3.97
2019-02-11T01:24:21.537Z,3.79
2019-02-11T01:29:24.908Z,3.81
2019-02-11T01:34:28.375Z,3.85
2019-02-11T01:39:31.756Z,3.85
2019-02-11T01:44:35.216Z,3.81
2019-02-11T01:49:38.575Z,3.86
2019-02-11T01:54:41.948Z,3.84
2019-02-11T01:59:45.312Z,3.84
2019-02-11T02:04:48.676Z,3.85
2019-02-11T02:09:52.109Z,3.88
2019-02-11T02:14:55.548Z,3.89
2019-02-11T02:19:58.991Z,3.87
2019-02-11T02:25:02.415Z,3.82
2019-02-11T02:30:06.157Z,3.92
2019-02-11T02:35:09.586Z,3.84
2019-02-11T02:40:12.924Z,3.86
2019-02-11T02:45:16.396Z,3.76
2019-02-11T02:50:19.739Z,3.64
2019-02-11T02:55:23.200Z,3.61
2019-02-11T03:00:26.721Z,3.66
2019-02-11T03:05:30.083Z,3.61
2019-02-11T03:10:34.056Z,3.59
2019-02-11T03:15:37.427Z,3.65
2019-02-11T03:20:40.881Z,3.54
2019-02-11T03:25:44.255Z,3.46
2019-02-11T03:30:47.683Z,3.52
2019-02-11T03:35:51.044Z,3.43
2019-02-11T03:40:54.412Z,3.29
2019-02-11T03:45:58.379Z,3.15
2019-02-11T03:51:01.756Z,3.02
2019-02-11T03:56:05.233Z,2.93
2019-02-11T04:01:08.641Z,2.89
2019-02-11T04:06:12.047Z,2.78
2019-02-11T04:11:15.512Z,2.77
2019-02-11T04:16:19.001Z,2.66
2019-02-11T04:21:22.529Z,2.48
2019-02-11T04:26:26.189Z,2.35
2019-02-11T04:31:29.567Z,2.26
2019-02-11T04:36:33.132Z,2.15
2019-02-11T04:41:36.522Z,2.05
2019-02-11T04:46:40.029Z,2.02
2019-02-11T04:51:43.504Z,1.96
2019-02-11T04:56:47.187Z,1.91
2019-02-11T05:01:50.582Z,1.88
2019-02-11T05:06:54.087Z,1.84
2019-02-11T05:11:57.510Z,1.79
2019-02-11T05:17:00.906Z,1.77
2019-02-11T05:22:05.441Z,1.70
2019-02-11T05:27:08.859Z,1.70
2019-02-11T05:32:12.290Z,1.65
2019-02-11T05:37:15.841Z,1.59
2019-02-11T05:42:19.312Z,1.52
2019-02-11T05:47:22.700Z,1.44
2019-02-11T05:52:26.101Z,1.37
2019-02-11T05:57:29.560Z,1.36
2019-02-11T06:02:33.103Z,1.22
2019-02-11T06:07:36.720Z,1.12
2019-02-11T06:12:40.106Z,1.08
2019-02-11T06:17:43.509Z,1.05
2019-02-11T06:22:47.061Z,1.03
2019-02-11T06:27:50.466Z,1.01
2019-02-11T06:32:53.958Z,1.06
2019-02-11T06:37:57.344Z,1.01
2019-02-11T06:43:01.362Z,0.98
2019-02-11T06:48:04.804Z,0.90
2019-02-11T06:53:08.488Z,0.91
2019-02-11T06:58:11.964Z,0.98
2019-02-11T07:03:15.369Z,0.97
2019-02-11T07:08:18.894Z,0.99
2019-02-11T07:13:22.532Z,1.02
2019-02-11T07:18:25.998Z,1.12
2019-02-11T07:23:29.563Z,1.14
2019-02-11T07:28:33.158Z,1.22
2019-02-11T07:33:36.613Z,1.31
2019-02-11T07:38:40.085Z,1.35
2019-02-11T07:44:02.734Z,1.39
2019-02-11T07:49:06.288Z,1.50
2019-02-11T07:54:09.968Z,1.53
2019-02-11T07:59:13.577Z,1.56
2019-02-11T08:04:18.532Z,1.58
2019-02-11T08:09:23.603Z,1.70
2019-02-11T08:14:28.508Z,1.73
2019-02-11T08:19:34.992Z,1.64
2019-02-11T08:24:38.331Z,1.71
2019-02-11T08:29:41.737Z,1.84
2019-02-11T08:34:45.178Z,1.85
2019-02-11T08:39:48.516Z,1.87
2019-02-11T08:44:51.835Z,1.98
2019-02-11T08:49:55.300Z,2.09
2019-02-11T08:54:58.659Z,2.08
2019-02-11T09:00:02.133Z,2.12
2019-02-11T09:05:05.659Z,2.17
2019-02-11T09:10:09.191Z,2.10
2019-02-11T09:15:12.671Z,2.23
2019-02-11T09:20:16.048Z,2.23
2019-02-11T09:25:19.388Z,2.55
2019-02-11T09:30:22.760Z,2.62
2019-02-11T09:35:26.120Z,2.64
2019-02-11T09:40:29.488Z,2.74
2019-02-11T09:45:32.963Z,2.85
2019-02-11T09:50:40.399Z,2.73
2019-02-11T09:55:43.896Z,2.67
2019-02-11T10:00:47.373Z,2.70
2019-02-11T10:05:50.768Z,2.65
2019-02-11T10:10:55.179Z,2.68
2019-02-11T10:15:59.049Z,2.68
2019-02-11T10:21:02.675Z,2.75
2019-02-11T10:26:06.091Z,2.76
2019-02-11T10:31:09.591Z,2.83
2019-02-11T10:36:14.026Z,2.87
2019-02-11T10:41:17.741Z,2.84
2019-02-11T10:46:21.371Z,2.88
2019-02-11T10:51:25.647Z,2.91
2019-02-11T10:56:29.089Z,2.90
2019-02-11T11:01:32.462Z,2.84
2019-02-11T11:06:35.952Z,2.97
2019-02-11T11:11:39.303Z,2.94
2019-02-11T11:16:42.688Z,3.23
2019-02-11T11:21:46.165Z,3.33
2019-02-11T11:26:49.607Z,3.29
2019-02-11T11:31:53.139Z,3.73
2019-02-11T11:36:56.654Z,3.73
2019-02-11T11:42:00.057Z,3.63
2019-02-11T11:47:03.637Z,3.92
2019-02-11T11:52:07.134Z,4.01
2019-02-11T11:57:10.697Z,4.34
2019-02-11T12:02:16.116Z,4.70
2019-02-11T12:07:17.496Z,4.52
2019-02-11T12:12:21.022Z,4.28
2019-02-11T12:17:24.447Z,4.59
2019-02-11T12:22:27.883Z,4.65
2019-02-11T12:27:31.279Z,4.52
2019-02-11T12:32:34.684Z,4.63
2019-02-11T12:37:38.055Z,4.44
2019-02-11T12:42:41.586Z,4.38
2019-02-11T12:47:44.979Z,4.24
2019-02-11T12:52:48.635Z,3.92
2019-02-11T12:57:53.115Z,3.33
2019-02-11T13:02:56.504Z,3.20
2019-02-11T13:07:59.887Z,3.36
2019-02-11T13:13:06.622Z,3.96
2019-02-11T13:18:07.910Z,4.12
2019-02-11T13:23:11.272Z,3.88
2019-02-11T13:28:14.807Z,3.68
2019-02-11T13:33:18.323Z,3.68
2019-02-11T13:38:21.857Z,3.69
2019-02-11T13:43:25.413Z,3.88
2019-02-11T13:48:28.855Z,3.75
2019-02-11T13:53:32.446Z,3.88
2019-02-11T13:58:36.723Z,4.15
2019-02-11T14:03:40.221Z,3.88
2019-02-11T14:08:43.865Z,3.75
2019-02-11T14:14:01.682Z,3.85
2019-02-11T14:18:50.981Z,3.77
2019-02-11T14:23:54.476Z,3.70
2019-02-11T14:28:58.037Z,3.70
2019-02-11T14:34:01.508Z,3.69
2019-02-11T14:39:07.170Z,3.57
2019-02-11T14:44:13.450Z,3.54
2019-02-11T14:49:14.210Z,3.52
2019-02-11T14:54:17.776Z,3.48
2019-02-11T14:59:21.341Z,3.36
2019-02-11T15:04:25.947Z,3.28
2019-02-11T15:09:29.485Z,3.24
2019-02-11T15:14:33.029Z,3.27
2019-02-11T15:19:36.629Z,3.22
2019-02-11T15:24:40.443Z,3.22
2019-02-11T15:29:43.934Z,3.19
2019-02-11T15:34:47.522Z,3.09
2019-02-11T15:39:51.195Z,3.09
2019-02-11T15:44:54.793Z,3.05
2019-02-11T15:49:58.281Z,3.06
2019-02-11T15:55:01.945Z,3.05
2019-02-11T16:00:06.811Z,2.99
2019-02-11T16:05:16.036Z,2.99
2019-02-11T16:10:15.904Z,2.91
2019-02-11T16:15:19.617Z,2.93
2019-02-11T16:20:23.157Z,2.95
2019-02-11T16:25:26.628Z,2.89
2019-02-11T16:30:30.161Z,2.90
2019-02-11T16:35:33.695Z,2.92
2019-02-11T16:40:37.232Z,2.89
2019-02-11T16:45:40.679Z,2.92
2019-02-11T16:50:44.261Z,2.87
2019-02-11T16:55:47.749Z,2.92
2019-02-11T17:00:51.281Z,2.86
2019-02-11T17:05:54.857Z,2.85
2019-02-11T17:10:58.404Z,2.78
2019-02-11T17:16:01.856Z,2.84
2019-02-11T17:21:05.465Z,2.85
2019-02-11T17:26:08.925Z,2.91
2019-02-11T17:31:12.453Z,2.89
2019-02-11T17:36:15.995Z,2.98
2019-02-11T17:41:19.481Z,2.86
2019-02-11T17:46:23.038Z,2.77
2019-02-11T17:51:26.521Z,2.77
2019-02-11T17:56:29.982Z,2.69
2019-02-11T18:01:33.569Z,2.56
2019-02-11T18:06:37.031Z,1.58
2019-02-11T18:11:40.589Z,1.09
2019-02-11T18:16:44.116Z,0.93
2019-02-11T18:21:47.592Z,0.85
2019-02-11T18:26:51.179Z,0.93
2019-02-11T18:31:55.679Z,0.87
2019-02-11T18:36:59.305Z,0.79
2019-02-11T18:42:02.905Z,0.85
2019-02-11T18:47:06.544Z,0.98
2019-02-11T18:52:10.182Z,1.01
2019-02-11T18:57:16.231Z,1.06
2019-02-11T19:02:19.807Z,0.96
2019-02-11T19:07:23.433Z,0.98
2019-02-11T19:12:26.921Z,0.97
2019-02-11T19:17:30.392Z,0.92
2019-02-11T19:22:34.173Z,0.84
2019-02-11T19:27:38.221Z,0.73
2019-02-11T19:32:41.699Z,0.63
2019-02-11T19:37:45.667Z,0.61
2019-02-11T19:42:49.732Z,0.58
2019-02-11T19:47:53.422Z,0.60
2019-02-11T19:52:57.090Z,0.58
2019-02-11T19:58:00.882Z,0.48
2019-02-11T20:03:04.653Z,0.51
2019-02-11T20:08:08.342Z,0.47
2019-02-11T20:13:12.524Z,0.51
2019-02-11T20:18:16.082Z,0.48
2019-02-11T20:23:19.802Z,0.48
2019-02-11T20:28:23.312Z,0.46
2019-02-11T20:33:27.022Z,0.47
2019-02-11T20:38:30.822Z,0.49
2019-02-11T20:43:34.676Z,0.49
2019-02-11T20:48:38.610Z,0.46
2019-02-11T20:53:42.216Z,0.45
2019-02-11T20:58:45.790Z,0.59
2019-02-11T21:03:49.465Z,0.66
2019-02-11T21:08:52.938Z,0.75
2019-02-11T21:13:56.436Z,0.72
2019-02-11T21:18:59.908Z,0.53
2019-02-11T21:24:03.455Z,0.59
2019-02-11T21:29:06.903Z,0.64
2019-02-11T21:34:10.387Z,0.47
2019-02-11T21:39:15.084Z,0.39
2019-02-11T21:44:18.824Z,0.29
2019-02-11T21:49:22.712Z,0.15
2019-02-11T21:54:26.322Z,0.12
2019-02-11T21:59:30.398Z,0.18
2019-02-11T22:04:33.768Z,0.19
2019-02-11T22:09:37.489Z,0.19
2019-02-11T22:14:40.979Z,0.15
2019-02-11T22:19:44.368Z,0.22
2019-02-11T22:24:48.785Z,0.32
2019-02-11T22:29:53.251Z,0.28
2019-02-11T22:34:56.639Z,0.44
2019-02-11T22:40:00.029Z,0.44
2019-02-11T22:45:03.475Z,0.45
2019-02-11T22:50:08.602Z,0.41
2019-02-11T22:55:11.950Z,0.40
2019-02-11T23:00:21.937Z,0.46
2019-02-11T23:05:25.274Z,0.44
2019-02-11T23:10:28.730Z,0.51
2019-02-11T23:15:32.284Z,0.38
2019-02-11T23:20:35.617Z,0.44
2019-02-11T23:25:39.042Z,0.39
2019-02-11T23:30:42.404Z,0.30
2019-02-11T23:35:45.848Z,0.29
2019-02-11T23:40:49.317Z,0.33
2019-02-11T23:45:52.669Z,0.45
2019-02-11T23:51:00.471Z,0.58
2019-02-11T23:55:59.416Z,0.56
